Time;durP1;ratioP1;P1;durP2;ratioP2;P2;SDS_P1;SDS_P2;PMS_P1;PMS_P2;Temp;Humidity;BMP_temperature;BMP_pressure;BME280_temperature;BME280_humidity;BME280_pressure;Samples;Min_cycle;Max_cycle;Signal;HPM_P1;HPM_P2
2023/07/10 04:23:42;;;;;;;5.60;3.95;;;21.50;99.90;;;;;;3092413;27;20454;-88
2023/07/10 04:26:35;;;;;;;8.90;3.92;;;21.50;99.90;;;;;;4920899;29;20047;-91
2023/07/10 05:35:05;;;;;;;6.25;2.58;;;21.50;99.90;;;;;;4937513;29;20055;-92
2023/07/10 06:39:33;;;;;;;6.35;2.58;;;21.40;99.90;;;;;;4956616;23;20089;-88
2023/07/10 06:56:18;;;;;;;11.30;2.10;;;21.50;99.90;;;;;;5084659;23;20071;-89
2023/07/10 07:03:54;;;;;;;8.07;2.30;;;21.50;99.90;;;;;;5050190;23;20056;-89
2023/07/10 07:06:20;;;;;;;10.63;2.78;;;21.40;99.90;;;;;;4936613;29;20054;-87
2023/07/10 07:11:25;;;;;;;8.02;2.97;;;21.40;99.90;;;;;;4934591;29;20064;-88
2023/07/10 07:13:53;;;;;;;9.18;2.70;;;21.40;99.90;;;;;;4935884;29;20024;-88
2023/07/10 07:16:26;;;;;;;6.82;2.10;;;21.50;99.90;;;;;;4936161;29;20388;-89
2023/07/10 07:19:20;;;;;;;7.93;2.17;;;21.50;99.90;;;;;;4935769;29;20043;-89
2023/07/10 07:21:47;;;;;;;11.70;3.05;;;21.50;99.90;;;;;;4936263;29;20036;-89
2023/07/10 07:24:27;;;;;;;10.68;2.17;;;21.60;99.90;;;;;;4936566;29;20032;-89
2023/07/10 07:26:53;;;;;;;8.57;2.22;;;21.60;99.90;;;;;;4941065;28;20035;-88
2023/07/10 07:29:28;;;;;;;5.90;2.40;;;21.60;99.90;;;;;;4955309;28;20090;-89
2023/07/10 07:31:54;;;;;;;7.93;2.58;;;21.60;99.90;;;;;;4955431;29;20023;-89
2023/07/10 07:34:20;;;;;;;10.90;3.15;;;22.10;99.90;;;;;;4954976;29;20531;-86
2023/07/10 07:37:05;;;;;;;16.48;4.18;;;21.60;99.90;;;;;;4954874;28;20357;-87
2023/07/10 08:13:10;;;;;;;9.38;2.63;;;21.80;99.90;;;;;;4959986;23;20054;-96
2023/07/10 08:15:48;;;;;;;8.05;2.13;;;21.80;99.90;;;;;;4954939;29;20392;-92
2023/07/10 08:18:14;;;;;;;12.93;2.47;;;22.60;99.90;;;;;;4955567;29;20376;-93
2023/07/10 08:32:36;;;;;;;9.65;2.55;;;22.00;99.90;;;;;;5755822;23;21688;-82
2023/07/10 08:35:02;;;;;;;6.00;2.38;;;21.90;99.90;;;;;;4936912;29;20026;-84
2023/07/10 09:18:45;;;;;;;6.95;1.70;;;22.40;99.90;;;;;;5096221;27;20993;-90
2023/07/10 09:21:25;;;;;;;5.60;1.98;;;21.70;99.90;;;;;;5070218;28;20529;-87
2023/07/10 09:23:51;;;;;;;6.05;1.60;;;21.70;99.90;;;;;;5070768;28;20036;-85
2023/07/10 09:26:26;;;;;;;15.25;4.30;;;21.70;99.90;;;;;;5087890;28;20052;-80
2023/07/10 09:29:10;;;;;;;6.10;2.13;;;21.70;99.90;;;;;;5078603;28;20016;-90
2023/07/10 09:32:11;;;;;;;9.00;2.03;;;21.60;99.90;;;;;;5071410;28;20035;-92
2023/07/10 09:34:58;;;;;;;7.30;2.25;;;21.60;99.90;;;;;;5071181;28;20082;-92
2023/07/10 09:37:30;;;;;;;9.25;2.45;;;21.50;99.90;;;;;;5071239;28;20037;-91
2023/07/10 09:39:55;;;;;;;7.55;2.35;;;21.40;99.90;;;;;;5071772;28;20032;-90
2023/07/10 09:42:32;;;;;;;4.57;1.60;;;21.40;99.90;;;;;;5071979;28;20029;-91
2023/07/10 09:44:59;;;;;;;8.65;2.33;;;21.50;99.90;;;;;;5070753;28;20432;-90
2023/07/10 09:47:39;;;;;;;6.95;2.05;;;21.50;99.90;;;;;;5071496;28;20052;-90
2023/07/10 09:50:12;;;;;;;11.48;2.25;;;21.50;99.90;;;;;;5071235;28;20033;-89
2023/07/10 09:52:40;;;;;;;11.95;2.17;;;21.50;99.90;;;;;;5071273;28;20032;-89
2023/07/10 09:55:15;;;;;;;10.35;2.03;;;21.50;99.90;;;;;;5071996;28;20017;-90
2023/07/10 09:58:03;;;;;;;11.30;2.28;;;21.50;99.90;;;;;;5070870;28;20029;-89
2023/07/10 10:00:29;;;;;;;8.15;2.00;;;21.50;99.90;;;;;;5070807;28;20134;-89
2023/07/10 10:03:03;;;;;;;9.00;2.40;;;21.60;99.90;;;;;;5070885;28;20043;-91
2023/07/10 10:05:29;;;;;;;7.47;2.38;;;21.60;99.90;;;;;;5071053;28;20104;-90
2023/07/10 10:08:02;;;;;;;11.35;2.35;;;21.60;99.90;;;;;;5070415;28;20380;-90
2023/07/10 10:10:32;;;;;;;7.45;1.98;;;21.70;99.90;;;;;;5070933;28;20099;-90
2023/07/10 10:13:04;;;;;;;11.13;2.20;;;21.70;99.90;;;;;;5054046;28;20024;-89
2023/07/10 10:15:41;;;;;;;9.63;2.33;;;21.80;99.90;;;;;;5068508;28;20456;-90
2023/07/10 10:18:17;;;;;;;12.93;2.17;;;21.80;99.90;;;;;;5066781;28;20130;-89
2023/07/10 10:20:51;;;;;;;8.25;2.75;;;21.90;99.90;;;;;;5050160;28;20025;-90
2023/07/10 10:23:38;;;;;;;6.72;1.80;;;21.90;99.90;;;;;;5060173;28;20045;-86
2023/07/10 10:26:22;;;;;;;4.60;1.73;;;22.00;99.90;;;;;;5067308;28;20029;-87
2023/07/10 10:29:20;;;;;;;4.32;1.80;;;21.90;99.90;;;;;;5059965;28;20043;-91
2023/07/10 10:32:11;;;;;;;9.02;2.00;;;22.10;99.90;;;;;;5057301;28;20025;-90
2023/07/10 10:34:48;;;;;;;7.95;1.80;;;22.20;99.90;;;;;;5056649;28;20029;-89
2023/07/10 10:37:14;;;;;;;5.65;1.55;;;22.10;99.90;;;;;;5056931;28;20098;-91
2023/07/10 10:39:50;;;;;;;5.95;1.77;;;22.10;99.90;;;;;;5058063;28;20021;-91
2023/07/10 10:42:40;;;;;;;5.55;1.33;;;22.20;99.90;;;;;;5054166;28;20099;-94
2023/07/10 10:45:08;;;;;;;5.80;1.75;;;22.20;99.90;;;;;;5056682;28;20032;-91
2023/07/10 10:48:12;;;;;;;4.85;1.50;;;22.30;99.90;;;;;;5056688;28;20087;-90
2023/07/10 10:51:01;;;;;;;7.80;1.80;;;22.30;99.90;;;;;;5038502;28;20033;-90
2023/07/10 10:53:32;;;;;;;8.50;1.67;;;22.30;99.90;;;;;;5036952;28;20037;-91
2023/07/10 10:56:36;;;;;;;9.50;1.88;;;22.20;99.90;;;;;;5042274;28;20461;-91
2023/07/10 10:59:36;;;;;;;14.18;2.17;;;22.30;99.90;;;;;;5056699;28;20029;-91
2023/07/10 11:02:21;;;;;;;4.00;1.80;;;22.20;99.90;;;;;;5056810;28;20458;-91
2023/07/10 11:04:59;;;;;;;8.80;1.77;;;22.20;99.90;;;;;;5060119;28;20068;-91
2023/07/10 11:07:27;;;;;;;7.70;2.03;;;22.20;99.90;;;;;;5056711;28;20024;-90
2023/07/10 11:09:59;;;;;;;8.48;2.00;;;22.20;99.90;;;;;;5055995;28;20021;-90
2023/07/10 11:12:29;;;;;;;6.00;1.52;;;22.10;99.90;;;;;;5068492;28;20021;-89
2023/07/10 11:15:11;;;;;;;7.63;1.55;;;22.20;99.90;;;;;;5058659;28;20021;-91
2023/07/10 11:17:37;;;;;;;5.47;1.80;;;22.20;99.90;;;;;;5052636;28;20064;-92
2023/07/10 11:20:04;;;;;;;9.32;2.30;;;22.20;99.90;;;;;;5044104;28;20021;-93
2023/07/10 11:22:34;;;;;;;5.60;1.77;;;22.20;99.90;;;;;;5039888;28;20075;-95
2023/07/10 11:25:02;;;;;;;8.10;1.65;;;22.30;99.90;;;;;;5053183;28;20032;-94
2023/07/10 11:27:30;;;;;;;6.90;2.40;;;22.40;99.90;;;;;;5056451;28;20052;-92
2023/07/10 11:30:08;;;;;;;7.18;1.58;;;22.50;99.90;;;;;;5055895;28;20107;-93
2023/07/10 11:32:57;;;;;;;4.90;1.90;;;22.60;99.90;;;;;;5056594;28;20040;-92
2023/07/10 11:35:24;;;;;;;6.88;1.83;;;22.70;99.90;;;;;;5055467;28;20059;-94
2023/07/10 11:37:49;;;;;;;7.57;2.08;;;22.50;99.90;;;;;;5055519;28;20474;-93
2023/07/10 11:40:30;;;;;;;6.80;2.25;;;22.50;99.90;;;;;;5055050;28;20036;-94
2023/07/10 11:43:00;;;;;;;12.57;1.77;;;22.50;99.90;;;;;;5056259;28;20025;-92
2023/07/10 11:45:38;;;;;;;6.57;2.00;;;22.40;99.90;;;;;;5056339;28;20071;-92
2023/07/10 11:48:37;;;;;;;11.32;2.03;;;22.40;99.90;;;;;;5055846;28;20048;-93
2023/07/10 11:51:02;;;;;;;9.23;1.40;;;22.50;99.90;;;;;;5059397;28;20021;-92
2023/07/10 11:53:28;;;;;;;7.70;1.80;;;22.50;99.80;;;;;;5061142;28;20546;-93
2023/07/10 11:56:02;;;;;;;6.82;1.85;;;22.60;99.90;;;;;;5062718;28;20025;-94
2023/07/10 11:58:33;;;;;;;8.18;2.28;;;22.70;99.90;;;;;;5066389;28;20025;-95
2023/07/10 12:01:18;;;;;;;7.20;1.70;;;22.70;99.90;;;;;;5452949;22;20106;-91
2023/07/10 12:03:45;;;;;;;3.85;1.50;;;22.70;99.90;;;;;;5075086;28;20024;-91
2023/07/10 12:06:22;;;;;;;9.02;3.42;;;22.70;99.90;;;;;;5092402;28;20090;-91
2023/07/10 12:08:49;;;;;;;3.92;1.85;;;22.80;99.90;;;;;;5102660;28;20035;-89
2023/07/10 12:11:31;;;;;;;6.40;2.30;;;22.80;99.90;;;;;;5094000;28;20088;-90
2023/07/10 12:14:11;;;;;;;7.90;2.08;;;22.80;99.90;;;;;;5095842;28;20040;-91
2023/07/10 12:16:53;;;;;;;3.90;1.43;;;22.80;99.90;;;;;;5102878;28;20034;-91
2023/07/10 12:19:25;;;;;;;6.47;1.50;;;22.90;99.90;;;;;;5099455;28;20147;-91
2023/07/10 12:21:50;;;;;;;6.18;1.65;;;22.90;99.90;;;;;;5093797;28;20095;-91
2023/07/10 12:24:17;;;;;;;13.18;3.20;;;22.90;99.90;;;;;;5094254;28;20120;-91
2023/07/10 12:26:49;;;;;;;5.38;1.52;;;22.90;99.90;;;;;;5094522;28;20111;-93
2023/07/10 12:29:15;;;;;;;8.90;1.50;;;22.90;99.90;;;;;;5094841;28;20402;-94
2023/07/10 12:31:41;;;;;;;4.72;1.98;;;22.80;99.90;;;;;;5094482;28;20035;-93
2023/07/10 12:34:26;;;;;;;4.07;1.60;;;22.80;99.90;;;;;;5095615;28;20052;-94
2023/07/10 12:36:54;;;;;;;4.32;1.70;;;22.90;99.90;;;;;;5091131;28;20066;-93
2023/07/10 12:39:21;;;;;;;7.10;1.83;;;22.90;99.90;;;;;;5094472;28;20016;-91
2023/07/10 12:44:46;;;;;;;5.13;1.92;;;22.90;99.90;;;;;;5403149;22;20048;-91
2023/07/10 12:47:14;;;;;;;8.88;2.03;;;23.00;99.90;;;;;;5097410;28;20016;-92
2023/07/10 12:49:59;;;;;;;5.40;1.75;;;23.10;99.90;;;;;;5099523;28;20140;-94
2023/07/10 12:52:26;;;;;;;6.18;1.67;;;23.10;99.90;;;;;;5102652;28;20119;-91
2023/07/10 12:54:53;;;;;;;3.35;1.20;;;23.10;99.90;;;;;;5094740;28;20085;-92
2023/07/10 12:57:22;;;;;;;2.88;1.30;;;23.00;99.90;;;;;;5094871;28;20063;-93
2023/07/10 12:59:54;;;;;;;3.53;1.25;;;23.00;99.90;;;;;;5094973;28;20047;-90
2023/07/10 13:02:28;;;;;;;5.90;1.58;;;23.20;99.90;;;;;;5095480;28;20043;-92
2023/07/10 13:04:58;;;;;;;6.90;1.83;;;23.10;99.90;;;;;;5115309;28;20068;-92
2023/07/10 13:07:39;;;;;;;5.38;1.80;;;23.10;99.90;;;;;;5117814;28;20008;-92
2023/07/10 13:10:25;;;;;;;;;;;23.10;99.90;;;;;;5098521;28;20034;-92
2023/07/10 13:12:54;;;;;;;6.53;2.13;;;23.10;99.90;;;;;;5096365;28;19904;-95
2023/07/10 13:15:33;;;;;;;9.57;1.83;;;23.20;99.90;;;;;;5095157;28;20031;-92
2023/07/10 13:18:00;;;;;;;5.15;1.83;;;23.20;99.90;;;;;;5094558;28;20089;-94
2023/07/10 13:20:28;;;;;;;6.22;1.63;;;23.20;99.90;;;;;;5094657;28;20029;-92
2023/07/10 13:23:03;;;;;;;4.45;1.50;;;23.20;99.90;;;;;;5096147;28;20417;-90
2023/07/10 13:25:31;;;;;;;3.60;1.50;;;23.20;99.90;;;;;;5095818;28;20016;-91
2023/07/10 13:27:57;;;;;;;8.35;1.77;;;23.30;99.90;;;;;;5093446;28;20023;-93
2023/07/10 13:30:24;;;;;;;5.70;1.63;;;23.30;99.90;;;;;;5094301;28;20028;-92
2023/07/10 13:32:49;;;;;;;7.63;1.63;;;23.30;99.90;;;;;;5102229;22;20528;-91
2023/07/10 13:35:28;;;;;;;4.40;1.75;;;23.30;99.90;;;;;;5093722;28;20032;-92
2023/07/10 13:37:53;;;;;;;6.65;1.65;;;23.40;99.90;;;;;;5089224;28;20043;-92
2023/07/10 13:40:21;;;;;;;6.28;1.65;;;23.30;99.90;;;;;;5092848;28;20028;-92
2023/07/10 13:42:47;;;;;;;7.47;1.77;;;23.80;99.90;;;;;;5093530;28;20028;-86
2023/07/10 13:45:13;;;;;;;7.78;1.67;;;23.40;99.90;;;;;;5092921;28;20023;-90
2023/07/10 13:47:38;;;;;;;6.55;1.70;;;23.50;99.90;;;;;;5097969;23;20057;-80
2023/07/10 13:50:04;;;;;;;8.32;1.95;;;23.60;99.90;;;;;;5090164;28;20098;-83
2023/07/10 13:52:30;;;;;;;6.13;1.70;;;23.70;99.90;;;;;;5090191;28;20123;-87
2023/07/10 13:54:57;;;;;;;5.40;1.90;;;23.80;99.90;;;;;;5090499;28;20020;-86
2023/07/10 13:57:27;;;;;;;3.97;2.13;;;23.90;99.90;;;;;;5090916;28;20502;-89
2023/07/10 13:59:54;;;;;;;6.13;1.75;;;24.00;99.40;;;;;;5091180;28;20372;-88
2023/07/10 14:02:34;;;;;;;6.55;2.08;;;24.00;99.50;;;;;;5092725;28;20031;-90
2023/07/10 14:05:02;;;;;;;6.60;2.15;;;24.10;99.60;;;;;;5095382;28;20028;-85
2023/07/10 14:07:30;;;;;;;8.43;2.05;;;24.20;99.60;;;;;;5096935;28;20028;-88
2023/07/10 14:09:58;;;;;;;4.25;1.30;;;24.10;99.50;;;;;;5098676;28;20040;-86
2023/07/10 14:12:25;;;;;;;6.70;2.10;;;24.20;99.80;;;;;;5099469;28;20027;-91
2023/07/10 14:14:51;;;;;;;4.88;1.70;;;24.20;99.00;;;;;;5097448;28;20059;-92
2023/07/10 14:17:33;;;;;;;4.80;1.85;;;24.20;98.90;;;;;;5100860;28;20064;-93
2023/07/10 14:19:59;;;;;;;5.63;2.15;;;24.20;99.00;;;;;;5096286;28;20024;-92
2023/07/10 14:22:25;;;;;;;4.25;1.70;;;24.20;99.20;;;;;;5102537;28;20054;-90
2023/07/10 14:24:50;;;;;;;3.75;1.75;;;24.30;99.30;;;;;;5101365;28;20028;-94
2023/07/10 14:27:20;;;;;;;4.18;2.08;;;24.40;98.80;;;;;;5097206;28;20085;-90
2023/07/10 14:29:46;;;;;;;4.60;1.60;;;24.40;99.10;;;;;;5096806;28;20016;-92
2023/07/10 14:32:18;;;;;;;7.97;1.63;;;24.40;98.30;;;;;;5100436;28;20286;-89
2023/07/10 14:34:43;;;;;;;6.47;1.70;;;24.60;98.80;;;;;;5098069;28;20039;-89
2023/07/10 14:37:18;;;;;;;4.32;1.35;;;24.50;98.30;;;;;;5099255;28;20071;-89
2023/07/10 14:39:44;;;;;;;3.47;1.50;;;24.60;98.70;;;;;;5099218;28;20111;-90
2023/07/10 14:42:28;;;;;;;7.32;1.98;;;24.50;97.80;;;;;;5096478;28;20016;-91
2023/07/10 14:44:53;;;;;;;6.15;1.45;;;24.40;98.10;;;;;;5101957;27;20027;-91
2023/07/10 14:47:32;;;;;;;7.65;1.95;;;24.40;98.70;;;;;;5126727;27;20032;-90
2023/07/10 14:49:58;;;;;;;3.65;1.60;;;24.40;98.30;;;;;;5108458;28;20043;-89
2023/07/10 14:52:26;;;;;;;1.85;1.08;;;24.40;98.30;;;;;;5098721;28;20036;-91
2023/07/10 14:54:54;;;;;;;4.45;1.45;;;24.50;98.20;;;;;;5096506;28;20054;-91
2023/07/10 14:57:30;;;;;;;7.03;2.13;;;24.60;98.30;;;;;;5096417;28;20036;-89
2023/07/10 14:59:58;;;;;;;3.33;1.40;;;24.80;98.30;;;;;;5096496;28;20044;-92
2023/07/10 15:02:24;;;;;;;4.13;1.85;;;25.00;98.10;;;;;;5103553;28;20016;-92
2023/07/10 15:04:50;;;;;;;4.65;1.63;;;25.10;98.30;;;;;;5110168;28;20406;-85
2023/07/10 15:07:17;;;;;;;4.07;1.50;;;25.20;97.40;;;;;;5111189;28;20027;-93
2023/07/10 15:09:44;;;;;;;5.22;1.63;;;25.40;97.30;;;;;;5118843;28;20015;-91
2023/07/10 15:12:15;;;;;;;5.72;1.70;;;25.50;96.90;;;;;;5117525;28;20031;-92
2023/07/10 15:14:41;;;;;;;5.55;1.75;;;25.70;96.20;;;;;;5118731;28;20034;-93
2023/07/10 15:17:16;;;;;;;4.97;1.50;;;25.60;96.60;;;;;;5119038;28;20052;-90
2023/07/10 15:19:43;;;;;;;4.22;1.67;;;25.70;96.70;;;;;;5126667;28;20031;-93
2023/07/10 15:28:34;;;;;;;3.20;1.30;;;25.90;96.30;;;;;;5017275;28;20183;-92
2023/07/10 15:31:21;;;;;;;6.95;2.45;;;26.00;96.10;;;;;;5021715;28;20034;-92
2023/07/10 15:33:47;;;;;;;5.28;1.48;;;26.10;96.10;;;;;;5021565;28;20030;-93
2023/07/10 15:36:30;;;;;;;2.70;2.00;;;26.20;95.70;;;;;;5020876;28;20044;-94
2023/07/10 15:38:57;;;;;;;4.82;1.50;;;26.30;95.80;;;;;;5026574;28;20045;-95
2023/07/10 15:44:14;;;;;;;5.03;1.60;;;26.50;94.90;;;;;;5016340;28;20032;-91
2023/07/10 15:47:04;;;;;;;3.70;1.25;;;26.70;95.00;;;;;;5031619;28;20045;-93
2023/07/10 15:49:30;;;;;;;5.07;1.50;;;26.90;95.10;;;;;;4999757;28;20039;-91
2023/07/10 15:51:56;;;;;;;4.15;1.48;;;26.70;94.30;;;;;;5019798;28;20030;-95
2023/07/10 15:54:39;;;;;;;4.97;1.92;;;27.10;94.20;;;;;;5022827;28;20061;-92
2023/07/10 15:57:05;;;;;;;4.10;1.73;;;27.40;94.50;;;;;;5014102;28;20469;-93
2023/07/10 15:59:31;;;;;;;4.60;1.20;;;27.60;93.40;;;;;;5023526;28;20277;-94
2023/07/10 16:02:24;;;;;;;5.55;1.30;;;27.80;93.90;;;;;;5012264;28;20030;-93
2023/07/10 16:04:49;;;;;;;2.47;1.27;;;28.50;93.40;;;;;;4998682;28;20033;-94
2023/07/10 16:08:04;;;;;;;4.50;1.48;;;28.60;92.70;;;;;;5017813;28;20045;-96
2023/07/10 16:10:31;;;;;;;3.15;1.23;;;29.10;92.70;;;;;;5016456;28;20095;-96
2023/07/10 16:12:57;;;;;;;3.03;1.40;;;29.60;91.80;;;;;;5009218;28;20618;-95
2023/07/10 16:15:43;;;;;;;6.88;1.60;;;30.10;91.70;;;;;;5016417;28;20037;-93
2023/07/10 16:18:14;;;;;;;5.03;1.60;;;30.60;91.00;;;;;;5018126;28;20070;-90
2023/07/10 16:20:59;;;;;;;4.85;1.80;;;30.50;90.60;;;;;;5010770;28;20168;-94
2023/07/10 16:23:31;;;;;;;7.00;2.00;;;30.70;90.60;;;;;;5012710;28;20037;-95
2023/07/10 16:26:17;;;;;;;1.98;1.40;;;31.10;90.30;;;;;;5015811;28;20069;-95
2023/07/10 16:28:43;;;;;;;3.30;1.63;;;31.40;90.00;;;;;;5007826;28;20041;-90
2023/07/10 16:31:29;;;;;;;2.83;1.60;;;31.60;89.60;;;;;;5015255;28;20025;-92
2023/07/10 16:33:55;;;;;;;2.42;1.50;;;31.80;88.40;;;;;;5027699;28;20037;-95
2023/07/10 16:36:20;;;;;;;4.38;1.50;;;31.50;88.60;;;;;;5030093;28;20038;-93
2023/07/10 16:38:47;;;;;;;2.92;2.05;;;31.70;88.40;;;;;;5002602;28;20045;-94
2023/07/10 16:41:15;;;;;;;4.47;1.55;;;31.60;88.20;;;;;;5008891;28;20033;-93
2023/07/10 16:44:03;;;;;;;3.55;1.33;;;31.80;88.00;;;;;;4994484;28;20030;-95
2023/07/10 16:46:28;;;;;;;3.72;1.52;;;31.50;87.50;;;;;;5008444;28;20098;-95
2023/07/10 16:48:56;;;;;;;4.50;1.55;;;31.30;87.90;;;;;;5005756;28;20113;-91
2023/07/10 16:51:36;;;;;;;2.78;1.63;;;30.80;88.30;;;;;;4996476;28;20032;-92
2023/07/10 16:54:03;;;;;;;3.38;1.52;;;29.80;90.00;;;;;;4995471;28;20113;-93
2023/07/10 16:56:29;;;;;;;5.13;1.58;;;29.50;90.50;;;;;;5015594;28;20060;-90
2023/07/10 16:59:09;;;;;;;2.58;1.42;;;29.60;90.80;;;;;;5025863;28;20385;-89
2023/07/10 17:04:10;;;;;;;2.45;1.40;;;29.50;90.60;;;;;;4403739;22;20057;-94
2023/07/10 17:06:38;;;;;;;4.97;1.50;;;29.50;90.40;;;;;;5061386;28;20041;-94
2023/07/10 17:09:04;;;;;;;3.03;1.70;;;29.50;90.50;;;;;;5058004;28;20025;-96
2023/07/10 17:14:25;;;;;;;4.68;2.08;;;29.60;90.80;;;;;;5325486;23;20064;-95
2023/07/10 17:17:38;;;;;;;4.60;1.77;;;29.40;90.50;;;;;;5067437;28;20040;-94
2023/07/10 17:20:12;;;;;;;3.30;1.60;;;29.20;90.70;;;;;;5057047;28;20036;-96
2023/07/10 17:23:00;;;;;;;3.85;1.45;;;29.00;91.00;;;;;;5057712;28;20029;-95
2023/07/10 17:25:52;;;;;;;4.43;1.55;;;28.70;91.00;;;;;;5109404;23;20136;-95
2023/07/10 17:28:41;;;;;;;4.70;1.88;;;28.50;91.20;;;;;;5044808;28;20033;-94
2023/07/10 17:32:10;;;;;;;4.18;1.60;;;28.40;91.40;;;;;;5036970;28;20042;-95
2023/07/10 17:34:36;;;;;;;4.20;1.60;;;28.30;91.50;;;;;;5038529;28;20017;-94
2023/07/10 17:37:02;;;;;;;5.60;1.45;;;28.00;91.70;;;;;;5034736;28;20032;-94
2023/07/10 17:39:50;;;;;;;4.63;1.50;;;27.60;92.10;;;;;;5026636;28;20520;-94
2023/07/10 17:45:20;;;;;;;6.18;2.10;;;27.40;92.80;;;;;;5040040;28;20033;-93
2023/07/10 17:47:52;;;;;;;6.03;1.55;;;27.30;93.20;;;;;;4993983;28;20052;-92
2023/07/10 17:50:36;;;;;;;7.40;1.00;;;27.20;92.70;;;;;;5033745;28;20030;-88
2023/07/10 17:53:02;;;;;;;6.20;1.17;;;27.00;92.70;;;;;;5035937;28;20029;-89
2023/07/10 17:55:28;;;;;;;3.30;1.33;;;26.80;92.90;;;;;;5032664;28;20029;-89
2023/07/10 17:57:58;;;;;;;4.53;1.10;;;26.60;92.80;;;;;;5040058;28;20025;-89
2023/07/10 18:00:46;;;;;;;2.20;1.05;;;26.40;93.20;;;;;;5034032;28;20033;-87
2023/07/10 18:03:31;;;;;;;2.28;1.13;;;26.50;93.70;;;;;;5039789;28;20025;-89
2023/07/10 18:05:59;;;;;;;3.10;1.38;;;26.40;93.50;;;;;;5036864;28;20029;-89
2023/07/10 18:08:30;;;;;;;2.03;1.20;;;26.30;93.60;;;;;;5035895;28;20477;-91
2023/07/10 18:11:09;;;;;;;4.50;1.13;;;26.20;93.40;;;;;;5036065;28;20421;-89
2023/07/10 18:13:54;;;;;;;3.25;1.08;;;26.10;94.00;;;;;;5036502;28;20037;-89
2023/07/10 18:16:20;;;;;;;2.70;1.23;;;26.00;93.90;;;;;;5039797;28;20139;-89
2023/07/10 18:18:45;;;;;;;3.35;1.30;;;25.90;94.10;;;;;;5041444;28;20048;-89
2023/07/10 18:21:26;;;;;;;3.72;1.10;;;25.90;94.10;;;;;;5057820;28;20021;-89
2023/07/10 18:23:52;;;;;;;2.80;0.95;;;25.90;94.20;;;;;;5061067;28;20044;-91
2023/07/10 18:26:19;;;;;;;5.47;1.30;;;25.90;94.30;;;;;;5056361;28;20054;-91
2023/07/10 18:28:49;;;;;;;5.00;1.25;;;25.90;94.30;;;;;;5050167;28;20034;-92
2023/07/10 18:31:37;;;;;;;1.80;1.10;;;26.00;94.30;;;;;;5044211;28;20026;-91
2023/07/10 18:34:02;;;;;;;2.65;1.20;;;26.00;94.20;;;;;;5033126;28;20049;-88
2023/07/10 18:36:31;;;;;;;2.08;0.93;;;26.00;94.00;;;;;;5031104;28;20025;-86
2023/07/10 18:38:58;;;;;;;9.95;1.38;;;26.00;93.10;;;;;;5031045;28;20036;-85
2023/07/10 18:41:32;;;;;;;3.50;1.20;;;26.00;92.90;;;;;;5028664;28;20108;-89
2023/07/10 18:44:04;;;;;;;4.63;1.08;;;25.90;92.60;;;;;;5035720;28;20037;-85
2023/07/10 18:46:31;;;;;;;4.22;1.40;;;25.90;93.10;;;;;;5034841;28;20426;-86
2023/07/10 18:48:57;;;;;;;2.35;1.20;;;25.90;93.10;;;;;;5033617;28;20091;-86
2023/07/10 18:51:24;;;;;;;4.03;1.40;;;25.80;93.20;;;;;;5036674;28;20025;-87
2023/07/10 18:54:11;;;;;;;2.47;1.40;;;25.80;93.10;;;;;;5034045;28;20052;-86
2023/07/10 18:56:37;;;;;;;8.18;1.35;;;25.70;93.40;;;;;;5034037;28;20128;-86
2023/07/10 18:59:16;;;;;;;4.80;1.10;;;25.60;93.50;;;;;;5036787;28;20020;-87
2023/07/10 19:01:57;;;;;;;1.65;0.90;;;25.60;93.70;;;;;;5026077;28;20041;-86
2023/07/10 19:04:23;;;;;;;3.83;1.20;;;25.50;93.90;;;;;;5028793;28;20022;-86
2023/07/10 19:06:49;;;;;;;4.38;0.90;;;25.40;94.00;;;;;;5025450;28;20041;-86
2023/07/10 19:09:37;;;;;;;3.40;1.10;;;25.40;94.00;;;;;;5034005;28;20378;-87
2023/07/10 19:12:11;;;;;;;1.88;0.88;;;25.30;94.20;;;;;;5032300;28;20041;-88
2023/07/10 19:14:37;;;;;;;3.97;1.20;;;25.30;93.90;;;;;;5033872;28;20057;-88
2023/07/10 19:17:04;;;;;;;4.68;1.30;;;25.20;93.90;;;;;;5032319;28;20389;-88
2023/07/10 19:19:37;;;;;;;3.78;1.17;;;25.10;93.90;;;;;;5038960;28;20101;-87
2023/07/10 19:22:03;;;;;;;5.20;1.17;;;25.00;94.00;;;;;;5032268;28;20053;-86
2023/07/10 19:24:30;;;;;;;2.42;1.30;;;25.00;94.10;;;;;;5028194;28;20099;-87
2023/07/10 19:26:56;;;;;;;3.95;1.25;;;24.80;94.30;;;;;;5047520;28;20068;-85
2023/07/10 19:29:22;;;;;;;4.15;1.05;;;24.80;94.50;;;;;;5056053;28;20026;-87
2023/07/10 19:31:55;;;;;;;3.25;1.15;;;24.80;94.50;;;;;;5053660;28;20461;-86
2023/07/10 19:34:21;;;;;;;4.85;0.88;;;24.70;94.70;;;;;;5034723;28;20021;-83
2023/07/10 19:36:47;;;;;;;3.67;1.10;;;24.70;95.00;;;;;;5042710;28;20021;-84
2023/07/10 19:39:40;;;;;;;1.85;1.00;;;24.60;95.10;;;;;;5049063;28;20025;-84
2023/07/10 19:42:06;;;;;;;2.45;1.20;;;24.40;95.20;;;;;;5037348;28;20052;-83
2023/07/10 19:44:51;;;;;;;3.28;1.17;;;24.30;95.30;;;;;;5023586;28;20024;-83
2023/07/10 19:47:18;;;;;;;2.38;1.27;;;24.20;95.30;;;;;;5031295;28;20095;-84
2023/07/10 19:49:45;;;;;;;4.90;1.10;;;24.10;95.50;;;;;;5030690;28;20021;-83
2023/07/10 19:52:17;;;;;;;1.77;1.05;;;24.60;95.70;;;;;;5028729;28;20101;-84
2023/07/10 19:54:42;;;;;;;3.58;1.23;;;24.10;95.70;;;;;;5029677;28;20021;-85
2023/07/10 19:57:27;;;;;;;3.10;1.40;;;24.10;96.10;;;;;;5031242;28;20032;-84
2023/07/10 19:59:52;;;;;;;4.75;1.17;;;24.10;95.90;;;;;;5023134;28;20491;-83
2023/07/10 20:02:18;;;;;;;4.90;1.08;;;24.00;96.00;;;;;;5025819;28;20035;-84
2023/07/10 20:04:44;;;;;;;2.90;1.08;;;23.90;96.40;;;;;;5032354;28;20010;-84
2023/07/10 20:07:11;;;;;;;2.35;0.90;;;24.40;96.90;;;;;;5040292;28;20034;-84
2023/07/10 20:09:37;;;;;;;3.30;1.33;;;23.80;97.00;;;;;;5036581;28;20099;-83
2023/07/10 20:12:15;;;;;;;4.97;1.13;;;23.70;97.00;;;;;;5027313;28;20057;-83
2023/07/10 20:14:44;;;;;;;2.05;1.30;;;23.60;97.00;;;;;;5032103;28;20646;-83
2023/07/10 20:17:32;;;;;;;5.40;1.17;;;23.50;97.10;;;;;;5038769;28;20044;-82
2023/07/10 20:19:58;;;;;;;2.13;1.08;;;23.80;96.80;;;;;;5017329;28;20026;-83
2023/07/10 20:22:25;;;;;;;3.83;1.00;;;23.50;96.80;;;;;;5027725;28;20500;-83
2023/07/10 20:24:51;;;;;;;3.15;1.20;;;23.50;96.80;;;;;;5032326;28;20470;-83
2023/07/10 20:27:17;;;;;;;3.70;1.58;;;23.30;96.90;;;;;;5021904;28;20041;-84
2023/07/10 20:29:43;;;;;;;3.63;1.35;;;23.50;97.10;;;;;;5024815;28;20029;-84
2023/07/10 20:32:12;;;;;;;2.97;1.02;;;23.20;97.30;;;;;;5018134;28;20588;-85
2023/07/10 20:34:45;;;;;;;4.53;1.35;;;23.20;97.20;;;;;;5024162;28;20105;-84
2023/07/10 20:37:10;;;;;;;2.90;1.20;;;23.10;97.20;;;;;;5024290;28;20072;-83
2023/07/10 20:39:36;;;;;;;2.15;1.20;;;23.10;97.20;;;;;;5029766;28;20485;-83
2023/07/10 20:42:03;;;;;;;2.20;1.10;;;23.20;97.40;;;;;;5029253;28;20026;-84
2023/07/10 20:44:28;;;;;;;3.03;1.33;;;23.20;97.50;;;;;;5029699;28;20025;-83
2023/07/10 20:46:58;;;;;;;7.40;1.70;;;23.20;97.30;;;;;;5023229;28;20037;-84
2023/07/10 20:49:26;;;;;;;2.80;1.38;;;23.10;97.40;;;;;;5022954;28;20376;-84
2023/07/10 20:51:52;;;;;;;3.90;1.45;;;23.00;97.50;;;;;;5023315;28;20029;-83
2023/07/10 20:54:20;;;;;;;5.65;1.50;;;23.50;97.80;;;;;;5026785;28;20063;-83
2023/07/10 20:56:52;;;;;;;3.00;1.20;;;22.90;97.70;;;;;;5031622;28;20025;-84
2023/07/10 20:59:19;;;;;;;3.10;1.17;;;22.90;97.70;;;;;;5019812;28;20038;-82
2023/07/10 21:01:45;;;;;;;2.05;1.27;;;22.80;97.80;;;;;;5037159;28;20025;-83
2023/07/10 21:04:11;;;;;;;3.10;1.27;;;22.80;98.00;;;;;;5039007;28;20067;-83
2023/07/10 21:06:43;;;;;;;4.18;1.23;;;22.80;98.20;;;;;;5030510;28;20485;-82
2023/07/10 21:09:26;;;;;;;3.92;1.35;;;22.70;98.30;;;;;;5031147;28;20129;-84
2023/07/10 21:11:52;;;;;;;8.77;1.75;;;22.70;98.40;;;;;;5031739;28;20037;-83
2023/07/10 21:14:18;;;;;;;3.13;1.30;;;22.70;98.70;;;;;;5033307;28;20053;-84
2023/07/10 21:16:45;;;;;;;5.32;1.50;;;22.80;98.70;;;;;;5031248;28;20022;-83
2023/07/10 21:19:27;;;;;;;5.03;1.48;;;22.60;98.80;;;;;;5034716;28;20132;-83
2023/07/10 21:21:53;;;;;;;3.67;1.70;;;22.50;99.00;;;;;;5030387;28;20462;-84
2023/07/10 21:24:21;;;;;;;4.38;1.17;;;22.40;99.10;;;;;;5014307;28;20026;-84
2023/07/10 21:26:56;;;;;;;4.82;1.52;;;22.90;99.40;;;;;;5018257;28;20050;-85
2023/07/10 21:29:22;;;;;;;6.00;1.45;;;22.50;99.40;;;;;;5030866;28;20041;-85
2023/07/10 21:31:49;;;;;;;5.07;1.58;;;22.50;99.60;;;;;;5030166;28;20037;-85
2023/07/10 21:34:15;;;;;;;4.75;1.50;;;22.50;99.70;;;;;;5030584;28;20025;-84
2023/07/10 21:36:41;;;;;;;3.45;1.15;;;22.40;99.80;;;;;;5039640;28;20029;-85
2023/07/10 21:39:07;;;;;;;4.57;1.35;;;22.90;99.90;;;;;;5046629;28;20052;-84
2023/07/10 21:41:37;;;;;;;2.92;1.30;;;22.40;99.90;;;;;;5032711;28;20030;-88
2023/07/10 21:44:22;;;;;;;3.20;1.65;;;22.40;99.90;;;;;;5031919;28;20025;-84
2023/07/10 21:46:48;;;;;;;3.50;1.27;;;22.90;99.90;;;;;;5031956;28;20037;-85
2023/07/10 21:49:14;;;;;;;5.22;1.75;;;22.40;99.90;;;;;;5032252;28;20083;-84
2023/07/10 21:51:40;;;;;;;2.78;1.67;;;22.40;99.90;;;;;;5042061;28;20017;-84
2023/07/10 21:54:33;;;;;;;3.80;1.58;;;22.20;99.90;;;;;;5050714;28;20034;-84